createdAt,value
2022-12-03T15:14:41.438Z,101248.09
2022-12-03T15:17:45.696Z,101242.13
2022-12-03T15:20:47.422Z,101249.59
2022-12-03T15:23:49.367Z,101244.41
2022-12-03T15:26:52.414Z,101240.06
2022-12-03T15:29:54.811Z,101243.38
2022-12-03T15:32:56.755Z,101243.31
2022-12-03T15:35:58.466Z,101249.31
2022-12-03T15:39:00.511Z,101254.31
2022-12-03T15:42:02.400Z,101250.03
2022-12-03T15:45:05.404Z,101246.59
2022-12-03T15:48:07.361Z,101252.50
2022-12-03T15:51:09.110Z,101251.63
2022-12-03T15:54:12.212Z,101249.06
2022-12-03T15:57:14.370Z,101253.22
2022-12-03T16:00:16.856Z,101251.50
2022-12-03T16:03:18.758Z,101256.59
2022-12-03T16:06:20.566Z,101253.19
2022-12-03T16:09:27.124Z,101254.81
2022-12-03T16:12:29.513Z,101249.78
2022-12-03T16:15:31.511Z,101244.66
2022-12-03T16:18:33.265Z,101244.63
2022-12-03T16:21:35.063Z,101250.59
2022-12-03T16:24:36.904Z,101249.81
2022-12-03T16:27:38.728Z,101252.41
2022-12-03T16:30:40.639Z,101251.53
2022-12-03T16:33:42.352Z,101253.16
2022-12-03T16:36:45.672Z,101261.63
2022-12-03T16:39:47.458Z,101262.41
2022-12-03T16:42:49.310Z,101255.63
2022-12-03T16:46:01.786Z,101265.03
2022-12-03T16:49:03.962Z,101256.53
2022-12-03T16:52:05.900Z,101254.03
2022-12-03T16:55:08.108Z,101255.72
2022-12-03T16:58:10.200Z,101249.81
2022-12-03T17:01:12.125Z,101247.28
2022-12-03T17:04:13.822Z,101255.72
2022-12-03T17:07:15.432Z,101259.88
2022-12-03T17:10:18.047Z,101254.78
2022-12-03T17:13:19.898Z,101248.84
2022-12-03T17:16:21.782Z,101252.25
2022-12-03T17:19:23.676Z,101261.56
2022-12-03T17:22:25.442Z,101260.78
2022-12-03T17:25:28.098Z,101265.91
2022-12-03T17:28:29.735Z,101270.16
2022-12-03T17:31:32.940Z,101266.72
2022-12-03T17:34:37.280Z,101264.16
2022-12-03T17:37:38.920Z,101264.91
2022-12-03T17:40:40.666Z,101267.50
2022-12-03T17:43:43.358Z,101268.41
2022-12-03T17:46:44.955Z,101265.88
2022-12-03T17:49:46.876Z,101256.53
2022-12-03T17:52:48.713Z,101264.16
2022-12-03T17:55:50.532Z,101263.25
2022-12-03T17:58:52.451Z,101261.63
2022-12-03T18:01:54.178Z,101254.81
2022-12-03T18:04:55.790Z,101259.06
2022-12-03T18:07:57.568Z,101255.63
2022-12-03T18:10:59.430Z,101257.34
2022-12-03T18:14:01.596Z,101256.53
2022-12-03T18:17:03.390Z,101263.25
2022-12-03T18:20:05.750Z,101267.50
2022-12-03T18:23:07.410Z,101258.97
2022-12-03T18:26:09.256Z,101255.63
2022-12-03T18:29:10.873Z,101250.56
2022-12-03T18:32:27.818Z,101250.56
2022-12-03T18:35:30.601Z,101252.19
2022-12-03T18:38:33.764Z,101260.69
2022-12-03T18:41:36.205Z,101258.09
2022-12-03T18:44:38.440Z,101259.81
2022-12-03T18:47:40.654Z,101260.63
2022-12-03T18:50:43.534Z,101261.47
2022-12-03T18:53:46.102Z,101258.13
2022-12-03T18:56:47.879Z,101260.69
2022-12-03T18:59:49.468Z,101249.72
2022-12-03T19:03:06.578Z,101249.72
2022-12-03T19:06:18.950Z,101247.19
2022-12-03T19:09:20.947Z,101241.28
2022-12-03T19:12:22.766Z,101246.31
2022-12-03T19:15:24.434Z,101245.44
2022-12-03T19:18:27.300Z,101243.75
2022-12-03T19:21:33.536Z,101250.47
2022-12-03T19:24:35.483Z,101252.19
2022-12-03T19:27:37.095Z,101242.97
2022-12-03T19:30:38.847Z,101241.28
2022-12-03T19:33:42.603Z,101243.06
2022-12-03T19:36:44.474Z,101248.09
2022-12-03T19:39:46.814Z,101254.78
2022-12-03T19:42:48.923Z,101251.38
2022-12-03T19:45:50.712Z,101251.38
2022-12-03T19:48:53.860Z,101258.16
2022-12-03T19:51:55.590Z,101261.50
2022-12-03T19:54:57.362Z,101256.44
2022-12-03T19:57:58.945Z,101256.38
2022-12-03T20:01:15.997Z,101263.09
2022-12-03T20:04:17.746Z,101256.31
2022-12-03T20:07:19.397Z,101252.09
2022-12-03T20:10:21.098Z,101256.44
2022-12-03T20:13:22.828Z,101261.53
2022-12-03T20:16:25.755Z,101262.34
2022-12-03T20:19:27.465Z,101254.66
2022-12-03T20:22:29.131Z,101260.66
2022-12-03T20:25:30.758Z,101252.34
2022-12-03T20:28:32.580Z,101263.34
2022-12-03T20:31:34.295Z,101255.72
2022-12-03T20:34:36.327Z,101254.75
2022-12-03T20:37:37.954Z,101259.06
2022-12-03T20:40:39.794Z,101259.06
2022-12-03T20:43:41.869Z,101252.28
2022-12-03T20:46:43.628Z,101263.31
2022-12-03T20:49:46.696Z,101261.63
2022-12-03T20:53:09.280Z,101254.81
2022-12-03T20:56:11.075Z,101253.16
2022-12-03T20:59:15.285Z,101255.63
2022-12-03T21:02:17.110Z,101249.81
2022-12-03T21:05:18.925Z,101256.53
2022-12-03T21:08:39.200Z,101246.34
2022-12-03T21:11:42.746Z,101250.53
2022-12-03T21:14:44.554Z,101254.75
2022-12-03T21:17:46.367Z,101250.53
2022-12-03T21:20:48.060Z,101252.13
2022-12-03T21:23:49.850Z,101250.47
2022-12-03T21:26:51.513Z,101252.25
2022-12-03T21:29:53.340Z,101245.41
2022-12-03T21:32:55.407Z,101247.16
2022-12-03T21:35:57.721Z,101250.47
2022-12-03T21:38:59.680Z,101250.47
2022-12-03T21:42:34.487Z,101251.38
2022-12-03T21:45:25.139Z,101258.13
2022-12-03T21:48:26.845Z,101255.56
2022-12-03T21:51:28.553Z,101253.00
2022-12-03T21:54:30.207Z,101264.00
2022-12-03T21:57:34.531Z,101259.72
2022-12-03T22:00:36.535Z,101261.41
2022-12-03T22:03:38.319Z,101256.38
2022-12-03T22:06:39.947Z,101256.38
2022-12-03T22:09:41.717Z,101258.03
2022-12-03T22:12:43.269Z,101258.91
2022-12-03T22:15:44.995Z,101258.09
2022-12-03T22:18:47.273Z,101258.06
2022-12-03T22:21:49.058Z,101257.22
2022-12-03T22:24:50.724Z,101247.91
2022-12-03T22:27:52.521Z,101254.66
2022-12-03T22:30:54.614Z,101243.66
2022-12-03T22:33:56.429Z,101247.94
2022-12-03T22:36:58.331Z,101246.25
2022-12-03T22:39:59.938Z,101244.63
2022-12-03T22:43:01.541Z,101237.84
2022-12-03T22:46:04.814Z,101235.22
2022-12-03T22:49:07.607Z,101236.88
2022-12-03T22:52:09.577Z,101233.56
2022-12-03T22:55:11.396Z,101230.16
2022-12-03T22:58:13.263Z,101222.53
2022-12-03T23:01:30.599Z,101214.91
2022-12-03T23:04:32.331Z,101216.66
2022-12-03T23:07:34.065Z,101226.78
2022-12-03T23:10:38.146Z,101219.22
2022-12-03T23:13:40.005Z,101220.09
2022-12-03T23:16:41.721Z,101209.88
2022-12-03T23:19:43.351Z,101204.78
2022-12-03T23:22:45.196Z,101209.06
2022-12-03T23:26:04.129Z,101208.19
2022-12-03T23:29:06.688Z,101207.28
2022-12-03T23:32:08.456Z,101205.53
2022-12-03T23:35:12.223Z,101206.38
2022-12-03T23:38:14.067Z,101199.66
2022-12-03T23:41:19.555Z,101203.06
2022-12-03T23:44:22.691Z,101203.91
2022-12-03T23:47:24.414Z,101201.44
2022-12-03T23:50:27.009Z,101205.63
2022-12-03T23:53:29.349Z,101205.59
2022-12-03T23:56:31.302Z,101205.63
2022-12-03T23:59:32.945Z,101202.25
